sensor_id;sensor_type;location;lat;lon;timestamp;temperature;humidity
77523;SHT31;66637;-29.628;-49.938;2023-04-24T00:00:42;22.82;76.39
77523;SHT31;66637;-29.628;-49.938;2023-04-24T00:03:15;22.69;74.86
77523;SHT31;66637;-29.628;-49.938;2023-04-24T00:05:46;22.62;74.20
77523;SHT31;66637;-29.628;-49.938;2023-04-24T00:08:17;22.55;74.10
77523;SHT31;66637;-29.628;-49.938;2023-04-24T00:10:49;22.51;73.62
77523;SHT31;66637;-29.628;-49.938;2023-04-24T00:13:19;22.46;73.21
77523;SHT31;66637;-29.628;-49.938;2023-04-24T00:15:51;22.46;72.90
77523;SHT31;66637;-29.628;-49.938;2023-04-24T00:18:21;22.42;72.92
77523;SHT31;66637;-29.628;-49.938;2023-04-24T00:20:52;22.41;72.68
77523;SHT31;66637;-29.628;-49.938;2023-04-24T00:23:23;22.33;72.73
77523;SHT31;66637;-29.628;-49.938;2023-04-24T00:25:54;22.36;72.58
77523;SHT31;66637;-29.628;-49.938;2023-04-24T00:28:26;22.31;72.74
77523;SHT31;66637;-29.628;-49.938;2023-04-24T00:30:57;22.28;72.83
77523;SHT31;66637;-29.628;-49.938;2023-04-24T00:33:28;22.23;72.78
77523;SHT31;66637;-29.628;-49.938;2023-04-24T00:36:00;22.18;72.98
77523;SHT31;66637;-29.628;-49.938;2023-04-24T00:38:30;22.15;73.19
77523;SHT31;66637;-29.628;-49.938;2023-04-24T00:41:00;22.13;73.16
77523;SHT31;66637;-29.628;-49.938;2023-04-24T00:43:31;22.09;73.22
77523;SHT31;66637;-29.628;-49.938;2023-04-24T00:46:02;22.06;73.43
77523;SHT31;66637;-29.628;-49.938;2023-04-24T00:48:34;22.04;73.52
77523;SHT31;66637;-29.628;-49.938;2023-04-24T00:51:04;22.01;73.53
77523;SHT31;66637;-29.628;-49.938;2023-04-24T00:53:35;21.97;73.89
77523;SHT31;66637;-29.628;-49.938;2023-04-24T00:56:05;21.95;74.00
77523;SHT31;66637;-29.628;-49.938;2023-04-24T00:58:36;21.97;74.13
77523;SHT31;66637;-29.628;-49.938;2023-04-24T01:01:07;22.00;74.21
77523;SHT31;66637;-29.628;-49.938;2023-04-24T01:03:38;22.01;74.35
77523;SHT31;66637;-29.628;-49.938;2023-04-24T01:06:10;22.01;74.56
77523;SHT31;66637;-29.628;-49.938;2023-04-24T01:08:41;22.01;74.66
77523;SHT31;66637;-29.628;-49.938;2023-04-24T01:11:11;22.02;74.65
77523;SHT31;66637;-29.628;-49.938;2023-04-24T01:13:41;22.00;74.80
77523;SHT31;66637;-29.628;-49.938;2023-04-24T01:16:12;21.97;74.89
77523;SHT31;66637;-29.628;-49.938;2023-04-24T01:18:43;21.97;75.01
77523;SHT31;66637;-29.628;-49.938;2023-04-24T01:21:14;22.00;74.91
77523;SHT31;66637;-29.628;-49.938;2023-04-24T01:23:47;22.00;74.89
77523;SHT31;66637;-29.628;-49.938;2023-04-24T01:26:18;21.98;74.89
77523;SHT31;66637;-29.628;-49.938;2023-04-24T01:28:53;22.04;74.99
77523;SHT31;66637;-29.628;-49.938;2023-04-24T01:31:23;22.01;75.02
77523;SHT31;66637;-29.628;-49.938;2023-04-24T01:33:54;22.00;75.03
77523;SHT31;66637;-29.628;-49.938;2023-04-24T01:36:27;21.98;74.86
77523;SHT31;66637;-29.628;-49.938;2023-04-24T01:38:59;21.98;74.92
77523;SHT31;66637;-29.628;-49.938;2023-04-24T01:41:30;21.94;75.12
77523;SHT31;66637;-29.628;-49.938;2023-04-24T01:44:01;21.98;74.81
77523;SHT31;66637;-29.628;-49.938;2023-04-24T01:46:33;22.01;74.63
77523;SHT31;66637;-29.628;-49.938;2023-04-24T01:49:05;21.94;74.96
77523;SHT31;66637;-29.628;-49.938;2023-04-24T01:51:36;21.94;74.74
77523;SHT31;66637;-29.628;-49.938;2023-04-24T01:54:07;21.92;74.57
77523;SHT31;66637;-29.628;-49.938;2023-04-24T01:56:43;21.92;74.34
77523;SHT31;66637;-29.628;-49.938;2023-04-24T01:59:13;21.91;74.25
77523;SHT31;66637;-29.628;-49.938;2023-04-24T02:01:45;21.94;74.14
77523;SHT31;66637;-29.628;-49.938;2023-04-24T02:04:18;21.94;74.06
77523;SHT31;66637;-29.628;-49.938;2023-04-24T02:06:49;21.97;73.80
77523;SHT31;66637;-29.628;-49.938;2023-04-24T02:09:19;21.97;73.55
77523;SHT31;66637;-29.628;-49.938;2023-04-24T02:11:50;22.00;73.29
77523;SHT31;66637;-29.628;-49.938;2023-04-24T02:14:21;22.01;73.01
77523;SHT31;66637;-29.628;-49.938;2023-04-24T02:16:51;22.00;72.67
77523;SHT31;66637;-29.628;-49.938;2023-04-24T02:19:23;21.98;72.74
77523;SHT31;66637;-29.628;-49.938;2023-04-24T02:21:53;22.01;72.32
77523;SHT31;66637;-29.628;-49.938;2023-04-24T02:24:24;22.02;72.19
77523;SHT31;66637;-29.628;-49.938;2023-04-24T02:26:55;22.05;72.14
77523;SHT31;66637;-29.628;-49.938;2023-04-24T02:29:26;22.02;72.19
77523;SHT31;66637;-29.628;-49.938;2023-04-24T02:31:58;22.05;72.00
77523;SHT31;66637;-29.628;-49.938;2023-04-24T02:34:28;22.04;71.89
77523;SHT31;66637;-29.628;-49.938;2023-04-24T02:37:00;22.02;71.71
77523;SHT31;66637;-29.628;-49.938;2023-04-24T02:39:30;22.02;71.42
77523;SHT31;66637;-29.628;-49.938;2023-04-24T02:42:00;22.02;71.47
77523;SHT31;66637;-29.628;-49.938;2023-04-24T02:44:31;22.06;71.61
77523;SHT31;66637;-29.628;-49.938;2023-04-24T02:47:01;22.05;71.72
77523;SHT31;66637;-29.628;-49.938;2023-04-24T02:49:31;22.06;71.73
77523;SHT31;66637;-29.628;-49.938;2023-04-24T02:52:02;22.05;71.49
77523;SHT31;66637;-29.628;-49.938;2023-04-24T02:54:33;22.08;71.38
77523;SHT31;66637;-29.628;-49.938;2023-04-24T02:57:05;22.09;71.42
77523;SHT31;66637;-29.628;-49.938;2023-04-24T02:59:39;22.04;71.07
77523;SHT31;66637;-29.628;-49.938;2023-04-24T03:02:10;22.02;70.82
77523;SHT31;66637;-29.628;-49.938;2023-04-24T03:04:40;21.98;70.49
77523;SHT31;66637;-29.628;-49.938;2023-04-24T03:07:14;21.98;70.34
77523;SHT31;66637;-29.628;-49.938;2023-04-24T03:09:44;21.95;70.24
77523;SHT31;66637;-29.628;-49.938;2023-04-24T03:12:15;21.95;70.43
77523;SHT31;66637;-29.628;-49.938;2023-04-24T03:14:48;21.94;70.96
77523;SHT31;66637;-29.628;-49.938;2023-04-24T03:17:19;21.95;71.41
77523;SHT31;66637;-29.628;-49.938;2023-04-24T03:19:51;21.97;71.78
77523;SHT31;66637;-29.628;-49.938;2023-04-24T03:22:21;22.00;71.83
77523;SHT31;66637;-29.628;-49.938;2023-04-24T03:24:53;22.02;72.25
77523;SHT31;66637;-29.628;-49.938;2023-04-24T03:27:24;22.00;71.99
77523;SHT31;66637;-29.628;-49.938;2023-04-24T03:29:59;22.01;72.11
77523;SHT31;66637;-29.628;-49.938;2023-04-24T03:32:40;22.05;72.29
77523;SHT31;66637;-29.628;-49.938;2023-04-24T03:35:14;22.02;72.07
77523;SHT31;66637;-29.628;-49.938;2023-04-24T03:37:45;22.04;72.40
77523;SHT31;66637;-29.628;-49.938;2023-04-24T03:40:34;22.01;72.09
77523;SHT31;66637;-29.628;-49.938;2023-04-24T03:43:14;21.97;72.23
77523;SHT31;66637;-29.628;-49.938;2023-04-24T03:45:45;22.00;72.25
77523;SHT31;66637;-29.628;-49.938;2023-04-24T03:48:18;21.94;72.76
77523;SHT31;66637;-29.628;-49.938;2023-04-24T03:50:51;21.94;73.81
77523;SHT31;66637;-29.628;-49.938;2023-04-24T03:53:23;21.92;73.57
77523;SHT31;66637;-29.628;-49.938;2023-04-24T03:55:54;21.90;73.02
77523;SHT31;66637;-29.628;-49.938;2023-04-24T03:58:27;21.90;73.57
77523;SHT31;66637;-29.628;-49.938;2023-04-24T04:00:58;21.80;73.31
77523;SHT31;66637;-29.628;-49.938;2023-04-24T04:03:50;21.75;73.40
77523;SHT31;66637;-29.628;-49.938;2023-04-24T04:06:24;21.74;73.53
77523;SHT31;66637;-29.628;-49.938;2023-04-24T04:08:55;21.74;73.54
77523;SHT31;66637;-29.628;-49.938;2023-04-24T04:11:26;21.80;73.78
77523;SHT31;66637;-29.628;-49.938;2023-04-24T04:13:56;21.81;73.73
77523;SHT31;66637;-29.628;-49.938;2023-04-24T04:16:26;21.77;73.31
77523;SHT31;66637;-29.628;-49.938;2023-04-24T04:19:02;21.78;73.23
77523;SHT31;66637;-29.628;-49.938;2023-04-24T04:21:34;21.80;73.68
77523;SHT31;66637;-29.628;-49.938;2023-04-24T04:24:15;21.77;73.62
77523;SHT31;66637;-29.628;-49.938;2023-04-24T04:26:46;21.78;74.02
77523;SHT31;66637;-29.628;-49.938;2023-04-24T04:29:23;21.82;73.83
77523;SHT31;66637;-29.628;-49.938;2023-04-24T04:31:54;21.81;75.77
77523;SHT31;66637;-29.628;-49.938;2023-04-24T04:34:25;21.57;77.43
77523;SHT31;66637;-29.628;-49.938;2023-04-24T04:36:56;21.40;78.19
77523;SHT31;66637;-29.628;-49.938;2023-04-24T04:39:45;21.23;77.72
77523;SHT31;66637;-29.628;-49.938;2023-04-24T04:42:22;21.10;78.61
77523;SHT31;66637;-29.628;-49.938;2023-04-24T04:44:53;21.07;78.64
77523;SHT31;66637;-29.628;-49.938;2023-04-24T04:47:32;21.06;78.92
77523;SHT31;66637;-29.628;-49.938;2023-04-24T04:50:04;21.03;78.45
77523;SHT31;66637;-29.628;-49.938;2023-04-24T04:52:35;20.99;78.67
77523;SHT31;66637;-29.628;-49.938;2023-04-24T04:55:16;21.00;78.54
77523;SHT31;66637;-29.628;-49.938;2023-04-24T04:58:15;21.00;78.60
77523;SHT31;66637;-29.628;-49.938;2023-04-24T05:00:50;21.13;78.11
77523;SHT31;66637;-29.628;-49.938;2023-04-24T05:03:27;21.06;78.56
77523;SHT31;66637;-29.628;-49.938;2023-04-24T05:06:06;21.14;78.80
77523;SHT31;66637;-29.628;-49.938;2023-04-24T05:08:39;21.17;78.93
77523;SHT31;66637;-29.628;-49.938;2023-04-24T05:11:21;21.20;78.80
77523;SHT31;66637;-29.628;-49.938;2023-04-24T05:13:52;21.29;78.89
77523;SHT31;66637;-29.628;-49.938;2023-04-24T05:16:32;21.29;78.60
77523;SHT31;66637;-29.628;-49.938;2023-04-24T05:19:06;21.33;78.58
77523;SHT31;66637;-29.628;-49.938;2023-04-24T05:21:40;21.33;78.20
77523;SHT31;66637;-29.628;-49.938;2023-04-24T05:24:12;21.34;78.59
77523;SHT31;66637;-29.628;-49.938;2023-04-24T05:27:09;21.36;78.24
77523;SHT31;66637;-29.628;-49.938;2023-04-24T05:29:41;21.40;78.10
77523;SHT31;66637;-29.628;-49.938;2023-04-24T05:32:13;21.37;77.80
77523;SHT31;66637;-29.628;-49.938;2023-04-24T05:34:45;21.37;77.66
77523;SHT31;66637;-29.628;-49.938;2023-04-24T05:37:16;21.36;77.52
77523;SHT31;66637;-29.628;-49.938;2023-04-24T05:39:48;21.36;77.26
77523;SHT31;66637;-29.628;-49.938;2023-04-24T05:42:19;21.36;76.97
77523;SHT31;66637;-29.628;-49.938;2023-04-24T05:44:50;21.36;76.89
77523;SHT31;66637;-29.628;-49.938;2023-04-24T05:47:24;21.36;76.59
77523;SHT31;66637;-29.628;-49.938;2023-04-24T05:49:57;21.36;76.39
77523;SHT31;66637;-29.628;-49.938;2023-04-24T05:52:27;21.37;76.06
77523;SHT31;66637;-29.628;-49.938;2023-04-24T05:54:57;21.31;75.67
77523;SHT31;66637;-29.628;-49.938;2023-04-24T05:57:33;21.29;75.48
77523;SHT31;66637;-29.628;-49.938;2023-04-24T06:00:05;21.26;75.36
77523;SHT31;66637;-29.628;-49.938;2023-04-24T06:02:50;21.23;75.41
77523;SHT31;66637;-29.628;-49.938;2023-04-24T06:05:24;21.22;75.43
77523;SHT31;66637;-29.628;-49.938;2023-04-24T06:07:54;21.24;75.24
77523;SHT31;66637;-29.628;-49.938;2023-04-24T06:10:30;21.20;75.27
77523;SHT31;66637;-29.628;-49.938;2023-04-24T06:13:01;21.22;75.09
77523;SHT31;66637;-29.628;-49.938;2023-04-24T06:15:33;21.26;74.92
77523;SHT31;66637;-29.628;-49.938;2023-04-24T06:18:07;21.23;74.92
77523;SHT31;66637;-29.628;-49.938;2023-04-24T06:20:42;21.20;75.02
77523;SHT31;66637;-29.628;-49.938;2023-04-24T06:23:13;21.19;74.79
77523;SHT31;66637;-29.628;-49.938;2023-04-24T06:25:43;21.20;74.70
77523;SHT31;66637;-29.628;-49.938;2023-04-24T06:28:13;21.20;74.84
77523;SHT31;66637;-29.628;-49.938;2023-04-24T06:30:43;21.19;74.75
77523;SHT31;66637;-29.628;-49.938;2023-04-24T06:33:15;21.16;75.03
77523;SHT31;66637;-29.628;-49.938;2023-04-24T06:35:50;21.13;75.09
77523;SHT31;66637;-29.628;-49.938;2023-04-24T06:38:21;21.09;75.18
77523;SHT31;66637;-29.628;-49.938;2023-04-24T06:40:52;21.07;75.48
77523;SHT31;66637;-29.628;-49.938;2023-04-24T06:43:23;21.09;75.30
77523;SHT31;66637;-29.628;-49.938;2023-04-24T06:45:53;21.04;75.53
77523;SHT31;66637;-29.628;-49.938;2023-04-24T06:48:24;21.03;75.37
77523;SHT31;66637;-29.628;-49.938;2023-04-24T06:50:55;20.99;75.42
77523;SHT31;66637;-29.628;-49.938;2023-04-24T06:53:25;20.97;75.41
77523;SHT31;66637;-29.628;-49.938;2023-04-24T06:55:57;20.95;75.36
77523;SHT31;66637;-29.628;-49.938;2023-04-24T06:58:27;20.93;75.28
77523;SHT31;66637;-29.628;-49.938;2023-04-24T07:00:57;20.85;75.57
77523;SHT31;66637;-29.628;-49.938;2023-04-24T07:03:29;20.85;75.68
77523;SHT31;66637;-29.628;-49.938;2023-04-24T07:06:00;20.80;75.62
77523;SHT31;66637;-29.628;-49.938;2023-04-24T07:08:31;20.76;75.94
77523;SHT31;66637;-29.628;-49.938;2023-04-24T07:11:03;20.72;75.97
77523;SHT31;66637;-29.628;-49.938;2023-04-24T07:13:33;20.72;75.90
77523;SHT31;66637;-29.628;-49.938;2023-04-24T07:16:05;20.71;75.79
77523;SHT31;66637;-29.628;-49.938;2023-04-24T07:18:36;20.68;76.00
77523;SHT31;66637;-29.628;-49.938;2023-04-24T07:21:06;20.64;76.11
77523;SHT31;66637;-29.628;-49.938;2023-04-24T07:23:37;20.55;76.48
77523;SHT31;66637;-29.628;-49.938;2023-04-24T07:26:07;20.51;76.68
77523;SHT31;66637;-29.628;-49.938;2023-04-24T07:28:37;20.51;76.83
77523;SHT31;66637;-29.628;-49.938;2023-04-24T07:31:08;20.55;77.08
77523;SHT31;66637;-29.628;-49.938;2023-04-24T07:33:38;20.55;77.17
77523;SHT31;66637;-29.628;-49.938;2023-04-24T07:36:09;20.55;77.23
77523;SHT31;66637;-29.628;-49.938;2023-04-24T07:38:46;20.58;77.24
77523;SHT31;66637;-29.628;-49.938;2023-04-24T07:41:16;20.58;77.20
77523;SHT31;66637;-29.628;-49.938;2023-04-24T07:43:46;20.55;77.37
77523;SHT31;66637;-29.628;-49.938;2023-04-24T07:46:18;20.53;77.32
77523;SHT31;66637;-29.628;-49.938;2023-04-24T07:48:48;20.52;77.41
77523;SHT31;66637;-29.628;-49.938;2023-04-24T07:51:40;20.52;77.46
77523;SHT31;66637;-29.628;-49.938;2023-04-24T07:54:11;20.48;77.18
77523;SHT31;66637;-29.628;-49.938;2023-04-24T07:56:42;20.45;77.48
77523;SHT31;66637;-29.628;-49.938;2023-04-24T07:59:14;20.41;77.54
77523;SHT31;66637;-29.628;-49.938;2023-04-24T08:01:45;20.41;77.51
77523;SHT31;66637;-29.628;-49.938;2023-04-24T08:04:15;20.39;77.68
77523;SHT31;66637;-29.628;-49.938;2023-04-24T08:06:48;20.39;77.74
77523;SHT31;66637;-29.628;-49.938;2023-04-24T08:09:18;20.38;77.59
77523;SHT31;66637;-29.628;-49.938;2023-04-24T08:11:48;20.35;77.72
77523;SHT31;66637;-29.628;-49.938;2023-04-24T08:14:19;20.32;77.79
77523;SHT31;66637;-29.628;-49.938;2023-04-24T08:16:49;20.28;77.95
77523;SHT31;66637;-29.628;-49.938;2023-04-24T08:19:20;20.22;78.19
77523;SHT31;66637;-29.628;-49.938;2023-04-24T08:21:50;20.17;78.35
77523;SHT31;66637;-29.628;-49.938;2023-04-24T08:24:22;20.13;78.56
77523;SHT31;66637;-29.628;-49.938;2023-04-24T08:26:53;20.07;78.65
77523;SHT31;66637;-29.628;-49.938;2023-04-24T08:29:24;20.04;78.71
77523;SHT31;66637;-29.628;-49.938;2023-04-24T08:31:54;20.03;78.79
77523;SHT31;66637;-29.628;-49.938;2023-04-24T08:34:25;20.03;78.84
77523;SHT31;66637;-29.628;-49.938;2023-04-24T08:36:55;19.94;78.96
77523;SHT31;66637;-29.628;-49.938;2023-04-24T08:39:26;19.95;79.08
77523;SHT31;66637;-29.628;-49.938;2023-04-24T08:41:58;19.97;79.03
77523;SHT31;66637;-29.628;-49.938;2023-04-24T08:44:36;19.97;79.02
77523;SHT31;66637;-29.628;-49.938;2023-04-24T08:47:08;19.95;79.11
77523;SHT31;66637;-29.628;-49.938;2023-04-24T08:49:39;19.93;78.95
77523;SHT31;66637;-29.628;-49.938;2023-04-24T08:52:10;19.95;78.94
77523;SHT31;66637;-29.628;-49.938;2023-04-24T08:54:44;19.91;79.11
77523;SHT31;66637;-29.628;-49.938;2023-04-24T08:57:17;19.93;79.05
77523;SHT31;66637;-29.628;-49.938;2023-04-24T08:59:48;19.93;79.03
77523;SHT31;66637;-29.628;-49.938;2023-04-24T09:02:19;19.90;78.98
77523;SHT31;66637;-29.628;-49.938;2023-04-24T09:04:51;19.97;78.66
77523;SHT31;66637;-29.628;-49.938;2023-04-24T09:07:24;19.98;78.67
77523;SHT31;66637;-29.628;-49.938;2023-04-24T09:09:56;19.98;78.66
77523;SHT31;66637;-29.628;-49.938;2023-04-24T09:12:27;19.95;78.71
77523;SHT31;66637;-29.628;-49.938;2023-04-24T09:14:58;19.95;78.73
77523;SHT31;66637;-29.628;-49.938;2023-04-24T09:17:30;19.97;78.79
77523;SHT31;66637;-29.628;-49.938;2023-04-24T09:20:00;19.97;78.78
77523;SHT31;66637;-29.628;-49.938;2023-04-24T09:22:31;19.93;78.96
77523;SHT31;66637;-29.628;-49.938;2023-04-24T09:25:08;19.93;79.11
77523;SHT31;66637;-29.628;-49.938;2023-04-24T09:27:45;19.88;79.25
77523;SHT31;66637;-29.628;-49.938;2023-04-24T09:30:21;19.90;79.43
77523;SHT31;66637;-29.628;-49.938;2023-04-24T09:33:23;20.03;79.66
77523;SHT31;66637;-29.628;-49.938;2023-04-24T09:35:53;20.05;79.91
77523;SHT31;66637;-29.628;-49.938;2023-04-24T09:38:37;20.10;79.84
77523;SHT31;66637;-29.628;-49.938;2023-04-24T09:41:08;20.10;79.73
77523;SHT31;66637;-29.628;-49.938;2023-04-24T09:43:43;20.11;79.66
77523;SHT31;66637;-29.628;-49.938;2023-04-24T09:46:13;20.13;79.63
77523;SHT31;66637;-29.628;-49.938;2023-04-24T09:48:43;20.14;79.72
77523;SHT31;66637;-29.628;-49.938;2023-04-24T09:51:14;20.18;79.64
77523;SHT31;66637;-29.628;-49.938;2023-04-24T09:53:47;20.24;79.69
77523;SHT31;66637;-29.628;-49.938;2023-04-24T09:56:25;20.25;79.55
77523;SHT31;66637;-29.628;-49.938;2023-04-24T09:59:04;20.34;79.61
77523;SHT31;66637;-29.628;-49.938;2023-04-24T10:01:36;20.41;79.61
77523;SHT31;66637;-29.628;-49.938;2023-04-24T10:04:35;20.55;79.77
77523;SHT31;66637;-29.628;-49.938;2023-04-24T10:07:08;20.65;79.49
77523;SHT31;66637;-29.628;-49.938;2023-04-24T10:09:40;20.73;79.17
77523;SHT31;66637;-29.628;-49.938;2023-04-24T10:12:13;20.76;78.79
77523;SHT31;66637;-29.628;-49.938;2023-04-24T10:14:46;20.83;78.92
77523;SHT31;66637;-29.628;-49.938;2023-04-24T10:19:51;20.99;79.04
77523;SHT31;66637;-29.628;-49.938;2023-04-24T10:22:23;21.02;78.45
77523;SHT31;66637;-29.628;-49.938;2023-04-24T10:24:53;21.10;78.37
77523;SHT31;66637;-29.628;-49.938;2023-04-24T10:27:28;21.11;78.23
77523;SHT31;66637;-29.628;-49.938;2023-04-24T10:30:00;21.27;77.41
77523;SHT31;66637;-29.628;-49.938;2023-04-24T10:32:32;21.23;77.56
77523;SHT31;66637;-29.628;-49.938;2023-04-24T10:35:05;21.41;77.00
77523;SHT31;66637;-29.628;-49.938;2023-04-24T10:37:48;21.53;77.06
77523;SHT31;66637;-29.628;-49.938;2023-04-24T10:40:26;21.64;75.77
77523;SHT31;66637;-29.628;-49.938;2023-04-24T10:42:58;21.48;75.75
77523;SHT31;66637;-29.628;-49.938;2023-04-24T10:45:30;21.34;75.83
77523;SHT31;66637;-29.628;-49.938;2023-04-24T10:48:04;21.20;76.00
77523;SHT31;66637;-29.628;-49.938;2023-04-24T10:50:47;21.17;75.86
77523;SHT31;66637;-29.628;-49.938;2023-04-24T10:53:20;21.19;75.95
77523;SHT31;66637;-29.628;-49.938;2023-04-24T10:56:07;21.48;75.05
77523;SHT31;66637;-29.628;-49.938;2023-04-24T10:58:44;26.27;59.70
77523;SHT31;66637;-29.628;-49.938;2023-04-24T11:01:30;27.80;54.80
77523;SHT31;66637;-29.628;-49.938;2023-04-24T11:04:03;23.38;67.18
77523;SHT31;66637;-29.628;-49.938;2023-04-24T11:06:36;22.42;70.95
77523;SHT31;66637;-29.628;-49.938;2023-04-24T11:09:11;22.12;72.34
77523;SHT31;66637;-29.628;-49.938;2023-04-24T11:11:46;21.95;73.27
77523;SHT31;66637;-29.628;-49.938;2023-04-24T11:14:17;21.85;73.57
77523;SHT31;66637;-29.628;-49.938;2023-04-24T11:16:54;21.84;74.03
77523;SHT31;66637;-29.628;-49.938;2023-04-24T11:19:26;22.89;70.68
77523;SHT31;66637;-29.628;-49.938;2023-04-24T11:22:03;23.64;68.78
77523;SHT31;66637;-29.628;-49.938;2023-04-24T11:24:48;23.78;68.20
77523;SHT31;66637;-29.628;-49.938;2023-04-24T11:27:44;24.02;67.69
77523;SHT31;66637;-29.628;-49.938;2023-04-24T11:30:19;24.18;67.16
77523;SHT31;66637;-29.628;-49.938;2023-04-24T11:32:52;24.41;66.40
77523;SHT31;66637;-29.628;-49.938;2023-04-24T11:35:23;24.44;65.85
77523;SHT31;66637;-29.628;-49.938;2023-04-24T11:37:58;24.57;66.08
77523;SHT31;66637;-29.628;-49.938;2023-04-24T11:40:37;24.70;65.82
77523;SHT31;66637;-29.628;-49.938;2023-04-24T11:43:09;24.69;65.70
77523;SHT31;66637;-29.628;-49.938;2023-04-24T11:45:48;24.88;65.20
77523;SHT31;66637;-29.628;-49.938;2023-04-24T11:48:20;24.97;65.17
77523;SHT31;66637;-29.628;-49.938;2023-04-24T11:50:52;24.95;64.88
77523;SHT31;66637;-29.628;-49.938;2023-04-24T11:53:22;25.00;64.63
77523;SHT31;66637;-29.628;-49.938;2023-04-24T11:55:53;24.98;64.34
77523;SHT31;66637;-29.628;-49.938;2023-04-24T11:58:24;24.98;64.60
77523;SHT31;66637;-29.628;-49.938;2023-04-24T12:00:57;25.14;64.11
77523;SHT31;66637;-29.628;-49.938;2023-04-24T12:03:31;24.81;65.33
77523;SHT31;66637;-29.628;-49.938;2023-04-24T12:06:07;23.95;67.29
77523;SHT31;66637;-29.628;-49.938;2023-04-24T12:08:38;23.68;68.65
77523;SHT31;66637;-29.628;-49.938;2023-04-24T12:11:09;23.72;68.45
77523;SHT31;66637;-29.628;-49.938;2023-04-24T12:13:40;23.55;69.13
77523;SHT31;66637;-29.628;-49.938;2023-04-24T12:16:10;23.59;69.11
77523;SHT31;66637;-29.628;-49.938;2023-04-24T12:18:45;23.57;69.15
77523;SHT31;66637;-29.628;-49.938;2023-04-24T12:21:21;23.59;69.54
77523;SHT31;66637;-29.628;-49.938;2023-04-24T12:23:58;23.31;70.45
77523;SHT31;66637;-29.628;-49.938;2023-04-24T12:26:29;23.31;70.56
77523;SHT31;66637;-29.628;-49.938;2023-04-24T12:29:01;23.21;71.28
77523;SHT31;66637;-29.628;-49.938;2023-04-24T12:31:33;23.21;72.46
77523;SHT31;66637;-29.628;-49.938;2023-04-24T12:34:18;23.11;71.94
77523;SHT31;66637;-29.628;-49.938;2023-04-24T12:36:49;23.00;72.60
77523;SHT31;66637;-29.628;-49.938;2023-04-24T12:39:20;22.93;72.39
77523;SHT31;66637;-29.628;-49.938;2023-04-24T12:41:57;22.94;72.69
77523;SHT31;66637;-29.628;-49.938;2023-04-24T12:44:33;23.08;72.54
77523;SHT31;66637;-29.628;-49.938;2023-04-24T12:47:04;23.37;72.02
77523;SHT31;66637;-29.628;-49.938;2023-04-24T12:49:35;23.68;70.93
77523;SHT31;66637;-29.628;-49.938;2023-04-24T12:52:08;23.86;70.52
77523;SHT31;66637;-29.628;-49.938;2023-04-24T12:54:40;24.12;69.43
77523;SHT31;66637;-29.628;-49.938;2023-04-24T12:57:10;24.18;68.74
77523;SHT31;66637;-29.628;-49.938;2023-04-24T12:59:41;24.88;67.24
77523;SHT31;66637;-29.628;-49.938;2023-04-24T13:02:12;24.53;68.18
77523;SHT31;66637;-29.628;-49.938;2023-04-24T13:04:44;24.18;69.23
77523;SHT31;66637;-29.628;-49.938;2023-04-24T13:07:16;23.74;70.28
77523;SHT31;66637;-29.628;-49.938;2023-04-24T13:09:48;23.62;70.98
77523;SHT31;66637;-29.628;-49.938;2023-04-24T13:12:19;24.02;70.02
77523;SHT31;66637;-29.628;-49.938;2023-04-24T13:14:49;25.07;67.20
77523;SHT31;66637;-29.628;-49.938;2023-04-24T13:20:13;24.40;68.62
77523;SHT31;66637;-29.628;-49.938;2023-04-24T13:22:44;24.83;66.97
77523;SHT31;66637;-29.628;-49.938;2023-04-24T13:25:15;24.90;66.40
77523;SHT31;66637;-29.628;-49.938;2023-04-24T13:27:46;24.73;66.59
77523;SHT31;66637;-29.628;-49.938;2023-04-24T13:30:16;24.73;66.79
77523;SHT31;66637;-29.628;-49.938;2023-04-24T13:32:47;24.74;66.61
77523;SHT31;66637;-29.628;-49.938;2023-04-24T13:35:17;24.74;66.35
77523;SHT31;66637;-29.628;-49.938;2023-04-24T13:37:47;24.61;66.89
77523;SHT31;66637;-29.628;-49.938;2023-04-24T13:40:18;24.56;66.84
77523;SHT31;66637;-29.628;-49.938;2023-04-24T13:42:48;24.71;67.50
77523;SHT31;66637;-29.628;-49.938;2023-04-24T13:45:20;24.74;67.29
77523;SHT31;66637;-29.628;-49.938;2023-04-24T13:47:53;25.14;65.38
77523;SHT31;66637;-29.628;-49.938;2023-04-24T13:50:24;25.39;65.20
77523;SHT31;66637;-29.628;-49.938;2023-04-24T13:52:56;25.59;64.42
77523;SHT31;66637;-29.628;-49.938;2023-04-24T13:55:29;25.82;64.09
77523;SHT31;66637;-29.628;-49.938;2023-04-24T13:58:01;25.85;62.38
77523;SHT31;66637;-29.628;-49.938;2023-04-24T14:00:31;25.66;63.28
77523;SHT31;66637;-29.628;-49.938;2023-04-24T14:03:02;25.48;63.16
77523;SHT31;66637;-29.628;-49.938;2023-04-24T14:05:33;25.38;63.66
77523;SHT31;66637;-29.628;-49.938;2023-04-24T14:08:05;25.63;62.76
77523;SHT31;66637;-29.628;-49.938;2023-04-24T14:10:36;26.44;60.78
77523;SHT31;66637;-29.628;-49.938;2023-04-24T14:13:06;26.37;60.92
77523;SHT31;66637;-29.628;-49.938;2023-04-24T14:15:36;26.27;59.83
77523;SHT31;66637;-29.628;-49.938;2023-04-24T14:18:10;26.09;60.50
77523;SHT31;66637;-29.628;-49.938;2023-04-24T14:20:40;26.22;60.72
77523;SHT31;66637;-29.628;-49.938;2023-04-24T14:23:10;26.23;60.02
77523;SHT31;66637;-29.628;-49.938;2023-04-24T14:25:42;26.34;60.43
77523;SHT31;66637;-29.628;-49.938;2023-04-24T14:28:13;26.71;59.98
77523;SHT31;66637;-29.628;-49.938;2023-04-24T14:30:44;26.84;59.55
77523;SHT31;66637;-29.628;-49.938;2023-04-24T14:33:17;26.84;59.87
77523;SHT31;66637;-29.628;-49.938;2023-04-24T14:35:49;26.61;58.05
77523;SHT31;66637;-29.628;-49.938;2023-04-24T14:38:19;26.74;57.56
77523;SHT31;66637;-29.628;-49.938;2023-04-24T14:40:50;26.85;57.33
77523;SHT31;66637;-29.628;-49.938;2023-04-24T14:43:34;27.27;55.49
77523;SHT31;66637;-29.628;-49.938;2023-04-24T14:46:04;27.08;55.68
77523;SHT31;66637;-29.628;-49.938;2023-04-24T14:48:34;27.09;56.55
77523;SHT31;66637;-29.628;-49.938;2023-04-24T14:51:07;27.24;57.25
77523;SHT31;66637;-29.628;-49.938;2023-04-24T14:53:37;27.16;55.86
77523;SHT31;66637;-29.628;-49.938;2023-04-24T14:56:08;27.04;55.43
77523;SHT31;66637;-29.628;-49.938;2023-04-24T14:58:38;27.18;56.25
77523;SHT31;66637;-29.628;-49.938;2023-04-24T15:01:10;27.18;56.16
77523;SHT31;66637;-29.628;-49.938;2023-04-24T15:03:42;27.42;55.98
77523;SHT31;66637;-29.628;-49.938;2023-04-24T15:06:13;27.62;55.60
77523;SHT31;66637;-29.628;-49.938;2023-04-24T15:08:45;27.59;54.37
77523;SHT31;66637;-29.628;-49.938;2023-04-24T15:11:18;27.59;54.42
77523;SHT31;66637;-29.628;-49.938;2023-04-24T15:13:50;27.48;54.26
77523;SHT31;66637;-29.628;-49.938;2023-04-24T15:16:20;27.56;54.39
77523;SHT31;66637;-29.628;-49.938;2023-04-24T15:18:50;27.92;52.96
77523;SHT31;66637;-29.628;-49.938;2023-04-24T15:21:20;27.90;53.52
77523;SHT31;66637;-29.628;-49.938;2023-04-24T15:23:51;28.47;51.53
77523;SHT31;66637;-29.628;-49.938;2023-04-24T15:26:23;28.50;52.36